sensor_id;sensor_type;location;lat;lon;timestamp;pressure;altitude;pressure_sealevel;temperature;humidity
71964;BME280;59834;52.124;5.422;2024-03-02T00:00:21;99805.19;;;7.70;87.59
71964;BME280;59834;52.124;5.422;2024-03-02T00:02:49;99799.03;;;7.71;87.43
71964;BME280;59834;52.124;5.422;2024-03-02T00:05:18;99796.22;;;7.74;87.81
71964;BME280;59834;52.124;5.422;2024-03-02T00:07:52;99796.34;;;7.72;88.02
71964;BME280;59834;52.124;5.422;2024-03-02T00:10:27;99795.81;;;7.67;88.41
71964;BME280;59834;52.124;5.422;2024-03-02T00:12:56;99802.78;;;7.67;88.03
71964;BME280;59834;52.124;5.422;2024-03-02T00:15:41;99806.22;;;7.67;88.70
71964;BME280;59834;52.124;5.422;2024-03-02T00:18:12;99812.78;;;7.73;88.12
71964;BME280;59834;52.124;5.422;2024-03-02T00:20:40;99814.56;;;7.72;87.89
71964;BME280;59834;52.124;5.422;2024-03-02T00:23:09;99826.34;;;7.78;88.16
71964;BME280;59834;52.124;5.422;2024-03-02T00:25:43;99830.63;;;7.79;87.87
71964;BME280;59834;52.124;5.422;2024-03-02T00:28:14;99840.84;;;7.82;87.85
71964;BME280;59834;52.124;5.422;2024-03-02T00:30:52;99851.13;;;7.84;88.16
71964;BME280;59834;52.124;5.422;2024-03-02T00:33:21;99849.34;;;7.84;87.62
71964;BME280;59834;52.124;5.422;2024-03-02T00:35:49;99870.19;;;7.84;87.57
71964;BME280;59834;52.124;5.422;2024-03-02T00:38:16;99874.59;;;7.84;88.24
71964;BME280;59834;52.124;5.422;2024-03-02T00:40:44;99880.63;;;7.84;87.64
71964;BME280;59834;52.124;5.422;2024-03-02T00:43:42;99894.59;;;7.83;88.64
71964;BME280;59834;52.124;5.422;2024-03-02T00:46:20;99913.78;;;7.82;88.74
71964;BME280;59834;52.124;5.422;2024-03-02T00:51:13;99904.78;;;7.73;89.84
71964;BME280;59834;52.124;5.422;2024-03-02T00:53:41;99906.03;;;7.68;90.34
71964;BME280;59834;52.124;5.422;2024-03-02T00:56:11;99904.88;;;7.59;91.79
71964;BME280;59834;52.124;5.422;2024-03-02T00:58:39;99906.84;;;7.55;91.89
71964;BME280;59834;52.124;5.422;2024-03-02T01:01:07;99911.63;;;7.49;93.26
71964;BME280;59834;52.124;5.422;2024-03-02T01:03:36;99912.97;;;7.42;94.53
71964;BME280;59834;52.124;5.422;2024-03-02T01:06:07;99913.44;;;7.34;95.15
71964;BME280;59834;52.124;5.422;2024-03-02T01:08:38;99913.00;;;7.27;96.19
71964;BME280;59834;52.124;5.422;2024-03-02T01:11:13;99911.53;;;7.23;96.93
71964;BME280;59834;52.124;5.422;2024-03-02T01:13:41;99918.72;;;7.20;97.01
71964;BME280;59834;52.124;5.422;2024-03-02T01:16:14;99926.91;;;7.14;98.29
71964;BME280;59834;52.124;5.422;2024-03-02T01:18:43;99918.56;;;7.08;98.98
71964;BME280;59834;52.124;5.422;2024-03-02T01:21:12;99905.19;;;7.00;100.00
71964;BME280;59834;52.124;5.422;2024-03-02T01:23:38;99914.13;;;6.96;100.00
71964;BME280;59834;52.124;5.422;2024-03-02T01:26:06;99924.00;;;6.91;100.00
71964;BME280;59834;52.124;5.422;2024-03-02T01:28:36;99923.44;;;6.86;100.00
71964;BME280;59834;52.124;5.422;2024-03-02T01:31:03;99935.06;;;6.80;100.00
71964;BME280;59834;52.124;5.422;2024-03-02T01:33:31;99922.91;;;6.81;100.00
71964;BME280;59834;52.124;5.422;2024-03-02T01:35:59;99928.31;;;6.78;100.00
71964;BME280;59834;52.124;5.422;2024-03-02T01:38:29;99930.16;;;6.76;100.00
71964;BME280;59834;52.124;5.422;2024-03-02T01:41:00;99935.47;;;6.74;100.00
71964;BME280;59834;52.124;5.422;2024-03-02T01:43:33;99925.91;;;6.75;100.00
71964;BME280;59834;52.124;5.422;2024-03-02T01:46:02;99932.94;;;6.73;100.00
71964;BME280;59834;52.124;5.422;2024-03-02T01:48:28;99940.03;;;6.71;100.00
71964;BME280;59834;52.124;5.422;2024-03-02T01:50:56;99936.66;;;6.69;100.00
71964;BME280;59834;52.124;5.422;2024-03-02T01:53:22;99931.66;;;6.66;100.00
71964;BME280;59834;52.124;5.422;2024-03-02T01:55:50;99940.41;;;6.65;100.00
71964;BME280;59834;52.124;5.422;2024-03-02T01:58:16;99934.44;;;6.63;100.00
71964;BME280;59834;52.124;5.422;2024-03-02T02:00:44;99929.44;;;6.59;100.00
71964;BME280;59834;52.124;5.422;2024-03-02T02:03:11;99933.03;;;6.57;100.00
71964;BME280;59834;52.124;5.422;2024-03-02T02:05:44;99931.38;;;6.56;100.00
71964;BME280;59834;52.124;5.422;2024-03-02T02:08:14;99925.53;;;6.52;100.00
71964;BME280;59834;52.124;5.422;2024-03-02T02:10:42;99933.44;;;6.51;100.00
71964;BME280;59834;52.124;5.422;2024-03-02T02:13:09;99937.06;;;6.48;100.00
71964;BME280;59834;52.124;5.422;2024-03-02T02:15:38;99948.47;;;6.46;100.00
71964;BME280;59834;52.124;5.422;2024-03-02T02:18:04;99948.56;;;6.44;100.00
71964;BME280;59834;52.124;5.422;2024-03-02T02:20:31;99935.66;;;6.43;100.00
71964;BME280;59834;52.124;5.422;2024-03-02T02:23:00;99940.03;;;6.42;100.00
71964;BME280;59834;52.124;5.422;2024-03-02T02:25:29;99941.88;;;6.40;100.00
71964;BME280;59834;52.124;5.422;2024-03-02T02:27:57;99937.72;;;6.37;100.00
71964;BME280;59834;52.124;5.422;2024-03-02T02:30:31;99932.69;;;6.34;100.00
71964;BME280;59834;52.124;5.422;2024-03-02T02:32:58;99931.13;;;6.32;100.00
71964;BME280;59834;52.124;5.422;2024-03-02T02:35:25;99926.19;;;6.27;100.00
71964;BME280;59834;52.124;5.422;2024-03-02T02:37:54;99929.72;;;6.26;100.00
71964;BME280;59834;52.124;5.422;2024-03-02T02:40:23;99944.56;;;6.24;100.00
71964;BME280;59834;52.124;5.422;2024-03-02T02:42:50;99943.00;;;6.22;100.00
71964;BME280;59834;52.124;5.422;2024-03-02T02:45:25;99946.53;;;6.21;100.00
71964;BME280;59834;52.124;5.422;2024-03-02T02:47:58;99949.13;;;6.21;100.00
71964;BME280;59834;52.124;5.422;2024-03-02T02:50:24;99950.03;;;6.20;100.00
71964;BME280;59834;52.124;5.422;2024-03-02T02:53:00;99941.69;;;6.14;100.00
71964;BME280;59834;52.124;5.422;2024-03-02T02:55:32;99937.41;;;6.13;100.00
71964;BME280;59834;52.124;5.422;2024-03-02T02:58:00;99944.47;;;6.11;100.00
71964;BME280;59834;52.124;5.422;2024-03-02T03:00:27;99949.84;;;6.08;100.00
71964;BME280;59834;52.124;5.422;2024-03-02T03:02:54;99950.78;;;6.07;100.00
71964;BME280;59834;52.124;5.422;2024-03-02T03:05:21;99958.56;;;6.07;100.00
71964;BME280;59834;52.124;5.422;2024-03-02T03:07:47;99950.94;;;6.04;100.00
71964;BME280;59834;52.124;5.422;2024-03-02T03:10:18;99940.63;;;6.03;100.00
71964;BME280;59834;52.124;5.422;2024-03-02T03:12:45;99949.25;;;6.03;100.00
71964;BME280;59834;52.124;5.422;2024-03-02T03:15:12;99945.94;;;6.01;100.00
71964;BME280;59834;52.124;5.422;2024-03-02T03:17:40;99949.47;;;6.00;100.00
71964;BME280;59834;52.124;5.422;2024-03-02T03:20:10;99944.44;;;5.97;100.00
71964;BME280;59834;52.124;5.422;2024-03-02T03:22:38;99953.91;;;5.98;100.00
71964;BME280;59834;52.124;5.422;2024-03-02T03:25:06;99953.97;;;5.97;100.00
71964;BME280;59834;52.124;5.422;2024-03-02T03:27:36;99949.13;;;5.90;100.00
71964;BME280;59834;52.124;5.422;2024-03-02T03:30:04;99963.84;;;5.90;100.00
71964;BME280;59834;52.124;5.422;2024-03-02T03:32:34;99962.19;;;5.89;100.00
71964;BME280;59834;52.124;5.422;2024-03-02T03:35:01;99973.69;;;5.85;100.00
71964;BME280;59834;52.124;5.422;2024-03-02T03:37:38;99960.78;;;5.83;100.00
71964;BME280;59834;52.124;5.422;2024-03-02T03:40:05;99970.44;;;5.81;100.00
71964;BME280;59834;52.124;5.422;2024-03-02T03:42:38;99962.72;;;5.80;100.00
71964;BME280;59834;52.124;5.422;2024-03-02T03:45:06;99969.59;;;5.81;100.00
71964;BME280;59834;52.124;5.422;2024-03-02T03:47:33;99968.50;;;5.85;100.00
71964;BME280;59834;52.124;5.422;2024-03-02T03:50:00;99973.69;;;5.85;100.00
71964;BME280;59834;52.124;5.422;2024-03-02T03:52:27;99981.38;;;5.86;100.00
71964;BME280;59834;52.124;5.422;2024-03-02T03:54:55;99989.09;;;5.88;100.00
71964;BME280;59834;52.124;5.422;2024-03-02T03:57:22;99982.78;;;5.92;100.00
71964;BME280;59834;52.124;5.422;2024-03-02T03:59:48;99969.81;;;5.92;100.00
71964;BME280;59834;52.124;5.422;2024-03-02T04:02:16;99974.84;;;5.95;100.00
71964;BME280;59834;52.124;5.422;2024-03-02T04:04:43;99978.28;;;5.96;100.00
71964;BME280;59834;52.124;5.422;2024-03-02T04:07:10;99975.63;;;5.97;100.00
71964;BME280;59834;52.124;5.422;2024-03-02T04:09:37;99981.53;;;5.99;100.00
71964;BME280;59834;52.124;5.422;2024-03-02T04:12:05;99978.03;;;6.00;100.00
71964;BME280;59834;52.124;5.422;2024-03-02T04:14:32;99985.72;;;6.02;100.00
71964;BME280;59834;52.124;5.422;2024-03-02T04:17:01;99987.50;;;6.01;100.00
71964;BME280;59834;52.124;5.422;2024-03-02T04:19:27;99984.06;;;6.01;100.00
71964;BME280;59834;52.124;5.422;2024-03-02T04:21:54;99988.31;;;6.02;100.00
71964;BME280;59834;52.124;5.422;2024-03-02T04:24:21;99992.69;;;6.01;100.00
71964;BME280;59834;52.124;5.422;2024-03-02T04:26:48;99996.94;;;6.02;100.00
71964;BME280;59834;52.124;5.422;2024-03-02T04:29:16;99991.69;;;6.04;100.00
71964;BME280;59834;52.124;5.422;2024-03-02T04:31:48;99986.50;;;6.04;100.00
71964;BME280;59834;52.124;5.422;2024-03-02T04:34:17;99998.53;;;6.05;100.00
71964;BME280;59834;52.124;5.422;2024-03-02T04:36:46;99992.50;;;6.04;100.00
71964;BME280;59834;52.124;5.422;2024-03-02T04:39:15;99995.94;;;6.05;100.00
71964;BME280;59834;52.124;5.422;2024-03-02T04:41:41;100003.63;;;6.06;100.00
71964;BME280;59834;52.124;5.422;2024-03-02T04:44:09;100004.47;;;6.07;100.00
71964;BME280;59834;52.124;5.422;2024-03-02T04:46:38;100010.53;;;6.07;100.00
71964;BME280;59834;52.124;5.422;2024-03-02T04:49:05;100013.13;;;6.07;100.00
71964;BME280;59834;52.124;5.422;2024-03-02T04:51:32;100013.13;;;6.07;100.00
71964;BME280;59834;52.124;5.422;2024-03-02T04:54:00;100014.97;;;6.05;100.00
71964;BME280;59834;52.124;5.422;2024-03-02T04:56:27;100015.13;;;6.02;100.00
71964;BME280;59834;52.124;5.422;2024-03-02T04:58:58;100021.16;;;6.03;100.00
71964;BME280;59834;52.124;5.422;2024-03-02T05:01:24;100022.94;;;6.02;100.00
71964;BME280;59834;52.124;5.422;2024-03-02T05:03:51;100020.34;;;6.02;100.00
71964;BME280;59834;52.124;5.422;2024-03-02T05:06:20;100025.53;;;6.02;100.00
71964;BME280;59834;52.124;5.422;2024-03-02T05:08:47;100021.25;;;6.01;100.00
71964;BME280;59834;52.124;5.422;2024-03-02T05:11:17;100023.88;;;6.01;100.00
71964;BME280;59834;52.124;5.422;2024-03-02T05:14:13;100025.53;;;6.02;100.00
71964;BME280;59834;52.124;5.422;2024-03-02T05:16:41;100031.56;;;6.03;100.00
71964;BME280;59834;52.124;5.422;2024-03-02T05:19:08;100030.72;;;6.02;100.00
71964;BME280;59834;52.124;5.422;2024-03-02T05:21:35;100034.25;;;6.01;100.00
71964;BME280;59834;52.124;5.422;2024-03-02T05:24:01;100029.88;;;6.02;100.00
71964;BME280;59834;52.124;5.422;2024-03-02T05:26:28;100029.88;;;6.02;100.00
71964;BME280;59834;52.124;5.422;2024-03-02T05:28:57;100035.09;;;6.02;100.00
71964;BME280;59834;52.124;5.422;2024-03-02T05:31:24;100033.50;;;5.99;100.00
71964;BME280;59834;52.124;5.422;2024-03-02T05:33:53;100038.69;;;5.99;100.00
71964;BME280;59834;52.124;5.422;2024-03-02T05:36:23;100038.69;;;5.99;100.00
71964;BME280;59834;52.124;5.422;2024-03-02T05:38:50;100037.84;;;5.99;100.00
71964;BME280;59834;52.124;5.422;2024-03-02T05:41:17;100030.06;;;5.99;100.00
71964;BME280;59834;52.124;5.422;2024-03-02T05:43:44;100023.28;;;5.96;100.00
71964;BME280;59834;52.124;5.422;2024-03-02T05:46:11;100027.28;;;5.86;100.00
71964;BME280;59834;52.124;5.422;2024-03-02T05:48:38;100044.41;;;5.74;100.00
71964;BME280;59834;52.124;5.422;2024-03-02T05:51:04;100041.50;;;5.64;100.00
71964;BME280;59834;52.124;5.422;2024-03-02T05:53:33;100033.09;;;5.59;100.00
71964;BME280;59834;52.124;5.422;2024-03-02T05:56:04;100037.97;;;5.65;100.00
71964;BME280;59834;52.124;5.422;2024-03-02T05:58:32;100046.34;;;5.71;100.00
71964;BME280;59834;52.124;5.422;2024-03-02T06:01:13;100046.19;;;5.74;100.00
71964;BME280;59834;52.124;5.422;2024-03-02T06:03:41;100054.69;;;5.76;100.00
71964;BME280;59834;52.124;5.422;2024-03-02T06:06:09;100047.84;;;5.75;100.00
71964;BME280;59834;52.124;5.422;2024-03-02T06:08:38;100054.69;;;5.76;100.00
71964;BME280;59834;52.124;5.422;2024-03-02T06:11:05;100057.28;;;5.76;100.00
71964;BME280;59834;52.124;5.422;2024-03-02T06:13:37;100065.25;;;5.73;100.00
71964;BME280;59834;52.124;5.422;2024-03-02T06:16:03;100065.41;;;5.70;100.00
71964;BME280;59834;52.124;5.422;2024-03-02T06:18:31;100067.13;;;5.71;100.00
71964;BME280;59834;52.124;5.422;2024-03-02T06:20:58;100065.41;;;5.70;100.00
71964;BME280;59834;52.124;5.422;2024-03-02T06:23:24;100068.94;;;5.68;100.00
71964;BME280;59834;52.124;5.422;2024-03-02T06:29:08;100075.16;;;5.66;100.00
71964;BME280;59834;52.124;5.422;2024-03-02T06:31:35;100076.19;;;5.63;100.00
71964;BME280;59834;52.124;5.422;2024-03-02T06:34:03;100077.91;;;5.63;100.00
71964;BME280;59834;52.124;5.422;2024-03-02T06:36:34;100081.16;;;5.66;100.00
71964;BME280;59834;52.124;5.422;2024-03-02T06:39:02;100094.09;;;5.68;100.00
71964;BME280;59834;52.124;5.422;2024-03-02T06:41:30;100088.63;;;5.73;100.00
71964;BME280;59834;52.124;5.422;2024-03-02T06:44:07;100096.25;;;5.76;100.00
71964;BME280;59834;52.124;5.422;2024-03-02T06:46:39;100100.50;;;5.77;100.00
71964;BME280;59834;52.124;5.422;2024-03-02T06:49:06;100094.25;;;5.81;100.00
71964;BME280;59834;52.124;5.422;2024-03-02T06:51:36;100087.97;;;5.85;100.00
71964;BME280;59834;52.124;5.422;2024-03-02T06:54:03;100099.09;;;5.87;100.00
71964;BME280;59834;52.124;5.422;2024-03-02T06:56:30;100090.22;;;5.91;100.00
71964;BME280;59834;52.124;5.422;2024-03-02T06:59:00;100089.16;;;5.95;100.00
71964;BME280;59834;52.124;5.422;2024-03-02T07:01:29;100094.47;;;5.92;100.00
71964;BME280;59834;52.124;5.422;2024-03-02T07:03:58;100095.41;;;5.91;100.00
71964;BME280;59834;52.124;5.422;2024-03-02T07:06:25;100091.13;;;5.90;100.00
71964;BME280;59834;52.124;5.422;2024-03-02T07:08:53;100089.44;;;5.89;100.00
71964;BME280;59834;52.124;5.422;2024-03-02T07:11:20;100090.22;;;5.91;100.00
71964;BME280;59834;52.124;5.422;2024-03-02T07:13:47;100095.28;;;5.94;100.00
71964;BME280;59834;52.124;5.422;2024-03-02T07:16:14;100096.94;;;5.95;100.00
71964;BME280;59834;52.124;5.422;2024-03-02T07:19:00;100097.59;;;5.99;100.00
71964;BME280;59834;52.124;5.422;2024-03-02T07:21:29;100101.63;;;6.04;100.00
71964;BME280;59834;52.124;5.422;2024-03-02T07:23:56;100097.00;;;6.09;100.00
71964;BME280;59834;52.124;5.422;2024-03-02T07:26:26;100095.88;;;6.13;100.00
71964;BME280;59834;52.124;5.422;2024-03-02T07:29:00;100104.28;;;6.19;100.00
71964;BME280;59834;52.124;5.422;2024-03-02T07:31:28;100104.09;;;6.22;100.00
71964;BME280;59834;52.124;5.422;2024-03-02T07:33:55;100096.84;;;6.27;100.00
71964;BME280;59834;52.124;5.422;2024-03-02T07:36:22;100102.72;;;6.30;100.00
71964;BME280;59834;52.124;5.422;2024-03-02T07:38:51;100103.19;;;6.37;100.00
71964;BME280;59834;52.124;5.422;2024-03-02T07:41:18;100109.09;;;6.41;100.00
71964;BME280;59834;52.124;5.422;2024-03-02T07:43:44;100110.47;;;6.46;100.00
71964;BME280;59834;52.124;5.422;2024-03-02T07:46:12;100104.16;;;6.50;100.00
71964;BME280;59834;52.124;5.422;2024-03-02T07:48:39;100117.84;;;6.54;99.47
71964;BME280;59834;52.124;5.422;2024-03-02T07:51:07;100115.44;;;6.51;100.00
71964;BME280;59834;52.124;5.422;2024-03-02T07:53:34;100119.59;;;6.53;100.00
71964;BME280;59834;52.124;5.422;2024-03-02T07:56:03;100121.47;;;6.51;99.91
71964;BME280;59834;52.124;5.422;2024-03-02T07:58:32;100115.50;;;6.49;99.72
71964;BME280;59834;52.124;5.422;2024-03-02T08:01:02;100121.34;;;6.53;100.00
71964;BME280;59834;52.124;5.422;2024-03-02T08:03:31;100117.16;;;6.50;99.03
71964;BME280;59834;52.124;5.422;2024-03-02T08:05:59;100128.50;;;6.49;99.99
71964;BME280;59834;52.124;5.422;2024-03-02T08:08:27;100132.03;;;6.48;98.96
71964;BME280;59834;52.124;5.422;2024-03-02T08:10:53;100133.69;;;6.49;98.99
71964;BME280;59834;52.124;5.422;2024-03-02T08:13:20;100134.47;;;6.51;99.27
71964;BME280;59834;52.124;5.422;2024-03-02T08:15:47;100144.94;;;6.50;99.95
71964;BME280;59834;52.124;5.422;2024-03-02T08:18:14;100136.41;;;6.48;99.40
71964;BME280;59834;52.124;5.422;2024-03-02T08:20:41;100138.06;;;6.49;99.31
71964;BME280;59834;52.124;5.422;2024-03-02T08:23:11;100135.38;;;6.50;99.29
71964;BME280;59834;52.124;5.422;2024-03-02T08:25:37;100140.38;;;6.53;99.13
71964;BME280;59834;52.124;5.422;2024-03-02T08:28:04;100133.84;;;6.62;99.00
71964;BME280;59834;52.124;5.422;2024-03-02T08:30:31;100128.09;;;6.71;98.01
71964;BME280;59834;52.124;5.422;2024-03-02T08:32:59;100135.16;;;6.83;98.24
71964;BME280;59834;52.124;5.422;2024-03-02T08:35:26;100131.00;;;6.95;96.99
71964;BME280;59834;52.124;5.422;2024-03-02T08:37:53;100136.69;;;7.02;95.49
71964;BME280;59834;52.124;5.422;2024-03-02T08:40:20;100134.25;;;7.13;96.00
71964;BME280;59834;52.124;5.422;2024-03-02T08:42:46;100141.81;;;7.18;95.87
71964;BME280;59834;52.124;5.422;2024-03-02T08:45:14;100132.13;;;7.20;95.18
71964;BME280;59834;52.124;5.422;2024-03-02T08:47:41;100143.13;;;7.25;96.03
71964;BME280;59834;52.124;5.422;2024-03-02T08:50:08;100141.03;;;7.30;95.31
71964;BME280;59834;52.124;5.422;2024-03-02T08:52:35;100135.66;;;7.33;94.99
71964;BME280;59834;52.124;5.422;2024-03-02T08:55:02;100136.41;;;7.35;94.49
71964;BME280;59834;52.124;5.422;2024-03-02T08:57:29;100124.88;;;7.39;94.20
71964;BME280;59834;52.124;5.422;2024-03-02T08:59:56;100130.72;;;7.43;93.34
71964;BME280;59834;52.124;5.422;2024-03-02T09:02:25;100135.75;;;7.46;93.31
71964;BME280;59834;52.124;5.422;2024-03-02T09:04:51;100138.69;;;7.54;93.71
71964;BME280;59834;52.124;5.422;2024-03-02T09:07:20;100136.28;;;7.51;91.50
71964;BME280;59834;52.124;5.422;2024-03-02T09:09:47;100132.59;;;7.55;91.53
71964;BME280;59834;52.124;5.422;2024-03-02T09:12:14;100138.97;;;7.64;92.46
71964;BME280;59834;52.124;5.422;2024-03-02T09:14:41;100139.34;;;7.72;91.43
71964;BME280;59834;52.124;5.422;2024-03-02T09:17:08;100143.22;;;7.79;90.17
71964;BME280;59834;52.124;5.422;2024-03-02T09:19:37;100134.19;;;7.85;89.68
71964;BME280;59834;52.124;5.422;2024-03-02T09:22:05;100139.31;;;7.86;88.19
71964;BME280;59834;52.124;5.422;2024-03-02T09:24:33;100137.78;;;7.96;88.35
71964;BME280;59834;52.124;5.422;2024-03-02T09:27:00;100138.34;;;8.01;86.74
71964;BME280;59834;52.124;5.422;2024-03-02T09:29:26;100143.13;;;8.08;86.11
71964;BME280;59834;52.124;5.422;2024-03-02T09:31:53;100137.13;;;8.20;86.58
71964;BME280;59834;52.124;5.422;2024-03-02T09:34:19;100141.13;;;8.25;84.96
71964;BME280;59834;52.124;5.422;2024-03-02T09:36:46;100141.56;;;8.32;84.52
71964;BME280;59834;52.124;5.422;2024-03-02T09:39:15;100144.69;;;8.37;83.32
71964;BME280;59834;52.124;5.422;2024-03-02T09:41:42;100144.69;;;8.37;81.94
71964;BME280;59834;52.124;5.422;2024-03-02T09:44:13;100154.13;;;8.40;82.41
71964;BME280;59834;52.124;5.422;2024-03-02T09:46:40;100146.81;;;8.45;80.27
71964;BME280;59834;52.124;5.422;2024-03-02T09:49:11;100154.16;;;8.53;79.95
71964;BME280;59834;52.124;5.422;2024-03-02T09:51:37;100148.94;;;8.53;79.58
71964;BME280;59834;52.124;5.422;2024-03-02T09:54:04;100152.06;;;8.58;77.84
71964;BME280;59834;52.124;5.422;2024-03-02T09:56:53;100149.81;;;8.66;78.18
71964;BME280;59834;52.124;5.422;2024-03-02T09:59:19;100146.25;;;8.67;76.11
71964;BME280;59834;52.124;5.422;2024-03-02T10:02:00;100142.94;;;8.78;77.98
71964;BME280;59834;52.124;5.422;2024-03-02T10:04:28;100159.22;;;8.81;77.32
71964;BME280;59834;52.124;5.422;2024-03-02T10:09:39;100147.22;;;8.91;76.66
71964;BME280;59834;52.124;5.422;2024-03-02T10:12:08;100140.75;;;8.97;76.71
71964;BME280;59834;52.124;5.422;2024-03-02T10:14:35;100141.50;;;8.99;77.72
71964;BME280;59834;52.124;5.422;2024-03-02T10:17:03;100148.69;;;9.08;76.45
71964;BME280;59834;52.124;5.422;2024-03-02T10:19:30;100150.88;;;9.14;75.96
71964;BME280;59834;52.124;5.422;2024-03-02T10:22:02;100147.56;;;9.12;74.71
71964;BME280;59834;52.124;5.422;2024-03-02T10:24:39;100144.81;;;9.14;75.21
71964;BME280;59834;52.124;5.422;2024-03-02T10:27:07;100145.78;;;9.26;74.38
71964;BME280;59834;52.124;5.422;2024-03-02T10:29:39;100138.63;;;9.40;75.24
71964;BME280;59834;52.124;5.422;2024-03-02T10:32:11;100142.28;;;9.51;74.24
71964;BME280;59834;52.124;5.422;2024-03-02T10:34:43;100142.28;;;9.51;73.65
71964;BME280;59834;52.124;5.422;2024-03-02T10:37:11;100137.06;;;9.51;73.09
71964;BME280;59834;52.124;5.422;2024-03-02T10:39:39;100142.81;;;9.56;73.08
71964;BME280;59834;52.124;5.422;2024-03-02T10:42:07;100133.00;;;9.47;71.86
71964;BME280;59834;52.124;5.422;2024-03-02T10:44:34;100128.69;;;9.45;71.90
71964;BME280;59834;52.124;5.422;2024-03-02T10:47:04;100122.75;;;9.43;71.60
71964;BME280;59834;52.124;5.422;2024-03-02T10:49:32;100120.22;;;9.55;72.95
71964;BME280;59834;52.124;5.422;2024-03-02T10:51:59;100119.34;;;9.67;71.93
71964;BME280;59834;52.124;5.422;2024-03-02T10:54:27;100123.53;;;9.70;72.64
71964;BME280;59834;52.124;5.422;2024-03-02T10:57:04;100119.63;;;9.75;71.81
71964;BME280;59834;52.124;5.422;2024-03-02T10:59:35;100117.97;;;9.74;70.71
71964;BME280;59834;52.124;5.422;2024-03-02T11:02:06;100109.41;;;9.72;71.00
71964;BME280;59834;52.124;5.422;2024-03-02T11:04:35;100115.69;;;9.70;71.58
71964;BME280;59834;52.124;5.422;2024-03-02T11:07:04;100113.03;;;9.82;70.96
71964;BME280;59834;52.124;5.422;2024-03-02T11:09:34;100105.47;;;9.90;70.92
71964;BME280;59834;52.124;5.422;2024-03-02T11:12:25;100107.75;;;9.95;68.40
71964;BME280;59834;52.124;5.422;2024-03-02T11:14:56;100119.56;;;10.01;70.44
71964;BME280;59834;52.124;5.422;2024-03-02T11:17:23;100115.97;;;10.02;70.90
71964;BME280;59834;52.124;5.422;2024-03-02T11:19:51;100118.97;;;10.08;71.48
71964;BME280;59834;52.124;5.422;2024-03-02T11:22:19;100114.97;;;10.15;70.20
71964;BME280;59834;52.124;5.422;2024-03-02T11:24:52;100115.09;;;10.14;68.94
71964;BME280;59834;52.124;5.422;2024-03-02T11:33:08;100116.88;;;10.37;66.87
71964;BME280;59834;52.124;5.422;2024-03-02T11:35:43;100110.00;;;10.36;64.56
71964;BME280;59834;52.124;5.422;2024-03-02T11:38:13;100108.31;;;10.35;65.96
71964;BME280;59834;52.124;5.422;2024-03-02T11:40:41;100103.44;;;10.42;64.86
71964;BME280;59834;52.124;5.422;2024-03-02T11:43:08;100092.75;;;10.45;64.74
71964;BME280;59834;52.124;5.422;2024-03-02T11:45:42;100089.56;;;10.53;63.14
71964;BME280;59834;52.124;5.422;2024-03-02T11:48:15;100096.84;;;10.60;63.27
71964;BME280;59834;52.124;5.422;2024-03-02T11:53:17;100086.03;;;10.54;61.78
71964;BME280;59834;52.124;5.422;2024-03-02T11:55:45;100085.56;;;10.60;62.29
71964;BME280;59834;52.124;5.422;2024-03-02T11:58:16;100081.28;;;10.70;62.38
71964;BME280;59834;52.124;5.422;2024-03-02T12:00:51;100087.22;;;10.72;61.10
71964;BME280;59834;52.124;5.422;2024-03-02T12:03:20;100081.06;;;10.73;60.01
71964;BME280;59834;52.124;5.422;2024-03-02T12:05:52;100073.44;;;10.81;60.79
71964;BME280;59834;52.124;5.422;2024-03-02T12:08:19;100073.94;;;10.87;59.00
71964;BME280;59834;52.124;5.422;2024-03-02T12:10:59;100063.94;;;10.92;59.81
71964;BME280;59834;52.124;5.422;2024-03-02T12:13:27;100061.56;;;10.89;58.71
71964;BME280;59834;52.124;5.422;2024-03-02T12:15:55;100057.88;;;10.91;58.70
71964;BME280;59834;52.124;5.422;2024-03-02T12:18:25;100054.66;;;10.99;59.25
71964;BME280;59834;52.124;5.422;2024-03-02T12:20:52;100054.66;;;10.99;59.34
71964;BME280;59834;52.124;5.422;2024-03-02T12:23:23;100052.97;;;11.09;61.06
71964;BME280;59834;52.124;5.422;2024-03-02T12:25:50;100052.16;;;11.08;61.79
71964;BME280;59834;52.124;5.422;2024-03-02T12:28:17;100055.97;;;11.04;61.21
71964;BME280;59834;52.124;5.422;2024-03-02T12:30:44;100047.50;;;11.23;60.66
71964;BME280;59834;52.124;5.422;2024-03-02T12:33:11;100044.97;;;11.33;61.40
71964;BME280;59834;52.124;5.422;2024-03-02T12:35:38;100049.88;;;11.38;61.51
71964;BME280;59834;52.124;5.422;2024-03-02T12:38:06;100046.03;;;11.42;62.00
71964;BME280;59834;52.124;5.422;2024-03-02T12:40:33;100049.38;;;11.32;62.73
71964;BME280;59834;52.124;5.422;2024-03-02T12:43:00;100044.03;;;11.34;62.75
71964;BME280;59834;52.124;5.422;2024-03-02T12:45:28;100041.19;;;11.26;62.62
71964;BME280;59834;52.124;5.422;2024-03-02T12:47:56;100034.03;;;11.28;63.24
71964;BME280;59834;52.124;5.422;2024-03-02T12:50:23;100026.81;;;11.20;62.23
71964;BME280;59834;52.124;5.422;2024-03-02T12:52:54;100019.03;;;11.19;63.52
71964;BME280;59834;52.124;5.422;2024-03-02T12:55:22;100016.78;;;11.25;63.42
71964;BME280;59834;52.124;5.422;2024-03-02T12:57:53;100013.22;;;11.15;62.79
71964;BME280;59834;52.124;5.422;2024-03-02T13:00:21;100015.00;;;11.15;62.67
71964;BME280;59834;52.124;5.422;2024-03-02T13:02:49;100012.59;;;11.23;64.13
71964;BME280;59834;52.124;5.422;2024-03-02T13:05:18;100015.56;;;11.29;63.94
71964;BME280;59834;52.124;5.422;2024-03-02T13:07:47;100021.97;;;11.37;64.55
71964;BME280;59834;52.124;5.422;2024-03-02T13:10:14;100012.59;;;11.34;63.84
71964;BME280;59834;52.124;5.422;2024-03-02T13:12:40;100018.44;;;11.26;62.44
71964;BME280;59834;52.124;5.422;2024-03-02T13:15:08;100015.47;;;11.31;62.88
71964;BME280;59834;52.124;5.422;2024-03-02T13:17:36;100006.75;;;11.42;62.52
71964;BME280;59834;52.124;5.422;2024-03-02T13:20:05;100012.81;;;11.42;63.37
71964;BME280;59834;52.124;5.422;2024-03-02T13:22:37;100017.44;;;11.50;63.09